Buoy 46915

sailwx.info

Track history (hours):
 
Tides and Currents Weather Stations Pressure Air Temp Water Temp Dewpoint Dewpoint Depression Visibility Wind Speed Wind Dir Waves Ship Positions

Drifting buoy 46915

Last reported at 2018-May-22 18:00 UTC. Time now 2018-May-22 19:51 UTC.
Position N 53°04' W 129°43'.

Barometer 1014.1 mb

Date/timePositionNaut miles runAvg speedWind from/ knotsBaromVisibWave heightAir tempDewpointWater temp
2018-May-22 18:00N 53°04' W 129°43'0 0.0 1014.1
2018-May-22 17:00N 53°04' W 129°43'0 0.0 1014.3
2018-May-22 16:00N 53°04' W 129°43'0 0.0 1014.3
2018-May-22 15:00N 53°04' W 129°43'0 0.0 1014.2
2018-May-22 14:00N 53°04' W 129°43'0 0.0 1014.1
2018-May-22 13:00N 53°04' W 129°43'0 0.0 1014.2
2018-May-22 12:00N 53°04' W 129°43'0 0.0 1014.1
2018-May-22 11:00N 53°04' W 129°43'0 0.0 1014.0
2018-May-22 05:00N 53°04' W 129°43'0 0.0 1015.0
2018-May-22 04:00N 53°04' W 129°43'0 0.4 1015.0
2018-May-22 03:00N 53°04' W 129°43'0 0.4 1015.3
2018-May-22 02:00N 53°04' W 129°43'0 0.0 1015.7
2018-May-22 01:00N 53°04' W 129°43'0 0.0 1016.1
2018-May-22 00:00N 53°04' W 129°43'0 0.0 1016.4
2018-May-21 23:00N 53°04' W 129°43'0 0.4 1016.6
2018-May-21 22:00N 53°04' W 129°43'0 0.4 1016.5
2018-May-21 21:00N 53°04' W 129°43'0 0.0 1016.5
2018-May-21 19:00N 53°04' W 129°43'0 0.4 1016.3
2018-May-21 18:00N 53°04' W 129°43'0 0.0 1016.0
2018-May-21 17:00N 53°04' W 129°43'0 0.4 1015.8
2018-May-21 16:00N 53°04' W 129°43'0 0.0 1015.6
2018-May-21 15:00N 53°04' W 129°43'0 0.0 1015.3
2018-May-21 14:00N 53°04' W 129°43'0 0.4 1015.2
2018-May-21 13:00N 53°04' W 129°43'0 0.4 1015.5
2018-May-21 12:00N 53°04' W 129°43'0 0.0 1015.8
2018-May-21 11:00N 53°04' W 129°43'0 0.0 1016.0
2018-May-21 05:00N 53°04' W 129°43'0 0.0 1016.9
2018-May-21 04:00N 53°04' W 129°43'0 0.4 1016.8
2018-May-21 03:00N 53°04' W 129°43'0 0.4 1017.0
2018-May-21 02:00N 53°04' W 129°43'0 0.0 1017.4
2018-May-21 01:00N 53°04' W 129°43'0 0.0 1017.7
2018-May-21 00:00N 53°04' W 129°43'0 0.0 1017.8
2018-May-20 23:00N 53°04' W 129°43'0 0.0 1017.6
2018-May-20 22:00N 53°04' W 129°43'0 0.1 1017.6
2018-May-20 18:00N 53°04' W 129°43'0 0.0 1016.2
2018-May-20 17:00N 53°04' W 129°43'0 0.4 1015.9
2018-May-20 16:00N 53°04' W 129°43'0 0.0 1015.4
2018-May-20 15:00N 53°04' W 129°43'0 0.0 1015.1
2018-May-20 14:00N 53°04' W 129°43'0 0.0 1014.8
2018-May-20 12:00N 53°04' W 129°43'0 0.0 1014.1
2018-May-20 11:00N 53°04' W 129°43'0 0.0 1013.8
2018-May-20 05:00N 53°04' W 129°43'0 0.0 1013.8
2018-May-20 04:00N 53°04' W 129°43'0 0.0 1014.0
2018-May-20 03:00N 53°04' W 129°43'0 0.0 1013.8
2018-May-20 02:00N 53°04' W 129°43'0 0.0 1014.1
2018-May-20 01:00N 53°04' W 129°43'0 0.0 1014.4
2018-May-20 00:00N 53°04' W 129°43'0 0.0 1014.7
2018-May-19 23:00N 53°04' W 129°43'0 0.4 1015.0
2018-May-19 22:00N 53°04' W 129°43'0 0.0 1015.3
2018-May-19 19:00N 53°04' W 129°43'0 0.0 1015.7
2018-May-19 18:00N 53°04' W 129°43'0 0.0 1016.1
2018-May-19 17:00N 53°04' W 129°43'0 0.0 1016.4
2018-May-19 16:00N 53°04' W 129°43'0 0.4 1016.3
2018-May-19 15:00N 53°04' W 129°43'0 0.0 1016.5
2018-May-19 14:00N 53°04' W 129°43'0 0.4 1016.2
2018-May-19 13:00N 53°04' W 129°43'0 0.4 1016.6
2018-May-19 12:00N 53°04' W 129°43'0 0.0 1017.0
2018-May-19 11:00N 53°04' W 129°43'0 0.0 1017.2
2018-May-19 10:00N 53°04' W 129°43'0 0.0 1017.3
2018-May-19 06:00N 53°04' W 129°43'0 0.0 1017.4
2018-May-19 05:00N 53°04' W 129°43'0 0.4 1017.3
2018-May-19 04:00N 53°04' W 129°43'0 0.4 1017.1
2018-May-19 03:00N 53°04' W 129°43'0 0.0 1017.2
2018-May-19 02:00N 53°04' W 129°43'0 0.0 1017.2
2018-May-19 01:00N 53°04' W 129°43'0 0.4 1017.3
2018-May-19 00:00N 53°04' W 129°43'0 0.0 1017.2
2018-May-18 23:00N 53°04' W 129°43'0 0.4 1017.6
2018-May-18 22:00N 53°04' W 129°43'0 0.0 1017.9
2018-May-18 17:00N 53°04' W 129°43'0 0.0 1017.7
2018-May-18 16:00N 53°04' W 129°43'0 0.0 1017.8
2018-May-18 15:00N 53°04' W 129°43'0 0.4 1017.5
2018-May-18 14:00N 53°04' W 129°43'0 0.4 1017.2
2018-May-18 13:00N 53°04' W 129°43'0 0.0 1017.2
2018-May-18 12:00N 53°04' W 129°43'0 0.0 1017.1
2018-May-18 11:00N 53°04' W 129°43'0 0.0 1017.1
2018-May-18 10:00N 53°04' W 129°43'0 0.1 1017.2
2018-May-18 06:00N 53°04' W 129°43'0 0.4 1017.4
2018-May-18 05:00N 53°04' W 129°43'1 1.4 1017.4
2018-May-18 04:00N 53°04' W 129°45'0 0.0 1017.2
2018-May-18 03:00N 53°04' W 129°45'1 1.4 1017.3
2018-May-18 02:00N 53°04' W 129°43'0 0.0 1017.5
2018-May-18 01:00N 53°04' W 129°43'0 0.0 1018.0
2018-May-18 00:00N 53°04' W 129°43'0 0.0 1018.3
2018-May-17 22:00N 53°04' W 129°43'0 0.0 1019.1
2018-May-17 19:00N 53°04' W 129°43'0 0.0 1018.9
2018-May-17 18:00N 53°04' W 129°43'0 0.0 1018.9
2018-May-17 17:00N 53°04' W 129°43'0 0.0 1018.8
2018-May-17 16:00N 53°04' W 129°43'0 0.0 1019.0
2018-May-17 15:00N 53°04' W 129°43'0 0.0 1019.1
2018-May-17 14:00N 53°04' W 129°43'0 0.4 1019.2
2018-May-17 13:00N 53°04' W 129°43'0 0.0 1019.1
2018-May-17 12:00N 53°04' W 129°43'0 0.0 1019.2
2018-May-17 11:00N 53°04' W 129°43'0 0.0 1019.4
2018-May-17 06:00N 53°04' W 129°43'0 0.0 1019.3
2018-May-17 05:00N 53°04' W 129°43'0 0.4 1019.2
2018-May-17 04:00N 53°04' W 129°43'0 0.0 1018.9
2018-May-17 03:00N 53°04' W 129°43'0 0.0 1018.9
2018-May-17 02:00N 53°04' W 129°43'0 0.0 1019.1
2018-May-17 01:00N 53°04' W 129°43'0 0.0 1019.2
2018-May-17 00:00N 53°04' W 129°43'0 0.0 1019.3
2018-May-16 23:00N 53°04' W 129°43'0 0.0 1019.3
2018-May-16 22:00N 53°04' W 129°43'0 0.0 1019.4
2018-May-16 19:00N 53°04' W 129°43'0 0.0 1018.7
2018-May-16 18:00N 53°04' W 129°43'0 0.4 1018.3
2018-May-16 17:00N 53°04' W 129°43'0 0.0 1018.0
2018-May-16 16:00N 53°04' W 129°43'0 0.4 1017.7
2018-May-16 15:00N 53°04' W 129°43'0 0.0 1017.5
2018-May-16 14:00N 53°04' W 129°43'0 0.0 1017.4
2018-May-16 13:00N 53°04' W 129°43'0 0.0 1016.9
2018-May-16 12:00N 53°04' W 129°43'0 0.0 1016.5
2018-May-16 11:00N 53°04' W 129°43'0 0.0 1016.2
2018-May-16 06:00N 53°04' W 129°43'0 0.0 1014.2
2018-May-16 05:00N 53°04' W 129°43'0 0.0 1013.8
2018-May-16 04:00N 53°04' W 129°43'0 0.4 1013.3
2018-May-16 03:00N 53°04' W 129°43'0 0.0 1013.3
2018-May-16 02:00N 53°04' W 129°43'0 0.0 1013.4
2018-May-16 01:00N 53°04' W 129°43'0 0.0 1013.4
2018-May-16 00:00N 53°04' W 129°43'0 0.4 1013.6
2018-May-15 23:00N 53°04' W 129°43'0 0.0 1013.8
2018-May-15 22:00N 53°04' W 129°43'0 0.0 1014.0
2018-May-15 19:00N 53°04' W 129°43'0 0.0 1014.1
2018-May-15 18:00N 53°04' W 129°43'0 0.0 1013.9
2018-May-15 17:00N 53°04' W 129°43'0 0.0 1013.9
2018-May-15 16:00N 53°04' W 129°43'0 0.0 1014.0
2018-May-15 15:00N 53°04' W 129°43'0 0.0 1013.9
2018-May-15 14:00N 53°04' W 129°43'0 0.0 1013.8
2018-May-15 13:00N 53°04' W 129°43'0 0.0 1013.6
2018-May-15 12:00N 53°04' W 129°43'0 0.0 1013.5
2018-May-15 11:00N 53°04' W 129°43'0 0.0 1013.6
2018-May-15 05:00N 53°04' W 129°43'0 0.0 1014.3
2018-May-15 04:00N 53°04' W 129°43'0 0.0 1014.2
2018-May-15 03:00N 53°04' W 129°43'0 0.0 1014.4
2018-May-15 02:00N 53°04' W 129°43'0 0.0 1014.8
2018-May-15 01:00N 53°04' W 129°43'0 0.0 1015.0
2018-May-15 00:00N 53°04' W 129°43'0 0.0 1015.4
2018-May-14 23:00N 53°04' W 129°43'0 0.0 1015.6
2018-May-14 22:00N 53°04' W 129°43'0 0.0 1015.7
2018-May-14 18:00N 53°04' W 129°43'0 0.0 1016.2
2018-May-14 17:00N 53°04' W 129°43'0 0.0 1016.2
2018-May-14 16:00N 53°04' W 129°43'0 0.0 1016.1
2018-May-14 15:00N 53°04' W 129°43'0 0.0 1016.1
2018-May-14 14:00N 53°04' W 129°43'0 0.0 1016.0
2018-May-14 13:00N 53°04' W 129°43'0 0.0 1015.9
2018-May-14 12:00N 53°04' W 129°43'0 0.0 1015.8
2018-May-14 11:00N 53°04' W 129°43'0 0.0 1015.7
2018-May-14 06:00N 53°04' W 129°43'0 0.0 1015.0
2018-May-14 05:00N 53°04' W 129°43'0 0.0 1014.5
2018-May-14 04:00N 53°04' W 129°43'0 0.0 1014.6
2018-May-14 03:00N 53°04' W 129°43'0 0.0 1014.8
2018-May-14 02:00N 53°04' W 129°43'0 0.0 1015.1
2018-May-14 01:00N 53°04' W 129°43'0 0.0 1015.6
2018-May-14 00:00N 53°04' W 129°43'0 0.0 1016.1
2018-May-13 23:00N 53°04' W 129°43'0 0.0 1016.5
2018-May-13 22:00N 53°04' W 129°43'0 0.0 1016.8
2018-May-13 21:00N 53°04' W 129°43'0 0.0 1017.1
2018-May-13 20:00N 53°04' W 129°43'0 0.0 1017.8
2018-May-13 18:00N 53°04' W 129°43'0 0.0 1018.3
2018-May-13 17:00N 53°04' W 129°43'0 0.0 1018.7
2018-May-13 16:00N 53°04' W 129°43'0 0.0 1019.1
2018-May-13 15:00N 53°04' W 129°43'0 0.0 1019.3
2018-May-13 14:00N 53°04' W 129°43'0 0.0 1019.3
2018-May-13 13:00N 53°04' W 129°43'0 0.0 1019.3
2018-May-13 12:00N 53°04' W 129°43'0 0.0 1019.8
2018-May-13 06:00N 53°04' W 129°43'0 0.0 1021.5
2018-May-13 05:00N 53°04' W 129°43'0 0.0 1021.5
2018-May-13 04:00N 53°04' W 129°43'0 0.0 1021.3
2018-May-13 03:00N 53°04' W 129°43'0 0.0 1021.6
2018-May-13 02:00N 53°04' W 129°43'0 0.0 1022.3
2018-May-13 01:00N 53°04' W 129°43'0 0.0 1023.0
2018-May-13 00:00N 53°04' W 129°43'0 0.0 1023.3
2018-May-12 23:00N 53°04' W 129°43'0 0.4 1024.2
2018-May-12 22:00N 53°04' W 129°43'0 0.0 1024.7
2018-May-12 21:00N 53°04' W 129°43'0 0.2 1025.0
2018-May-12 19:00N 53°04' W 129°43'0 0.0 1025.9
2018-May-12 18:00N 53°04' W 129°43'   1026.3
Track history (hours):
 
Tides and Currents Weather Stations Pressure Air Temp Water Temp Dewpoint Dewpoint Depression Visibility Wind Speed Wind Dir Waves Ship Positions

Drifting buoy 46915

Last reported at 2018-May-22 18:00 UTC. Time now 2018-May-22 19:51 UTC.
Position N 53°04' W 129°43'.

Barometer 1014.1 mb

Date/timePositionNaut miles runAvg speedWind from/ knotsBaromVisibWave heightAir tempDewpointWater temp
2018-May-22 18:00N 53°04' W 129°43'0 0.0 1014.1
2018-May-22 17:00N 53°04' W 129°43'0 0.0 1014.3
2018-May-22 16:00N 53°04' W 129°43'0 0.0 1014.3
2018-May-22 15:00N 53°04' W 129°43'0 0.0 1014.2
2018-May-22 14:00N 53°04' W 129°43'0 0.0 1014.1
2018-May-22 13:00N 53°04' W 129°43'0 0.0 1014.2
2018-May-22 12:00N 53°04' W 129°43'0 0.0 1014.1
2018-May-22 11:00N 53°04' W 129°43'0 0.0 1014.0
2018-May-22 05:00N 53°04' W 129°43'0 0.0 1015.0
2018-May-22 04:00N 53°04' W 129°43'0 0.4 1015.0
2018-May-22 03:00N 53°04' W 129°43'0 0.4 1015.3
2018-May-22 02:00N 53°04' W 129°43'0 0.0 1015.7
2018-May-22 01:00N 53°04' W 129°43'0 0.0 1016.1
2018-May-22 00:00N 53°04' W 129°43'0 0.0 1016.4
2018-May-21 23:00N 53°04' W 129°43'0 0.4 1016.6
2018-May-21 22:00N 53°04' W 129°43'0 0.4 1016.5
2018-May-21 21:00N 53°04' W 129°43'0 0.0 1016.5
2018-May-21 19:00N 53°04' W 129°43'0 0.4 1016.3
2018-May-21 18:00N 53°04' W 129°43'0 0.0 1016.0
2018-May-21 17:00N 53°04' W 129°43'0 0.4 1015.8
2018-May-21 16:00N 53°04' W 129°43'0 0.0 1015.6
2018-May-21 15:00N 53°04' W 129°43'0 0.0 1015.3
2018-May-21 14:00N 53°04' W 129°43'0 0.4 1015.2
2018-May-21 13:00N 53°04' W 129°43'0 0.4 1015.5
2018-May-21 12:00N 53°04' W 129°43'0 0.0 1015.8
2018-May-21 11:00N 53°04' W 129°43'0 0.0 1016.0
2018-May-21 05:00N 53°04' W 129°43'0 0.0 1016.9
2018-May-21 04:00N 53°04' W 129°43'0 0.4 1016.8
2018-May-21 03:00N 53°04' W 129°43'0 0.4 1017.0
2018-May-21 02:00N 53°04' W 129°43'0 0.0 1017.4
2018-May-21 01:00N 53°04' W 129°43'0 0.0 1017.7
2018-May-21 00:00N 53°04' W 129°43'0 0.0 1017.8
2018-May-20 23:00N 53°04' W 129°43'0 0.0 1017.6
2018-May-20 22:00N 53°04' W 129°43'0 0.1 1017.6
2018-May-20 18:00N 53°04' W 129°43'0 0.0 1016.2
2018-May-20 17:00N 53°04' W 129°43'0 0.4 1015.9
2018-May-20 16:00N 53°04' W 129°43'0 0.0 1015.4
2018-May-20 15:00N 53°04' W 129°43'0 0.0 1015.1
2018-May-20 14:00N 53°04' W 129°43'0 0.0 1014.8
2018-May-20 12:00N 53°04' W 129°43'0 0.0 1014.1
2018-May-20 11:00N 53°04' W 129°43'0 0.0 1013.8
2018-May-20 05:00N 53°04' W 129°43'0 0.0 1013.8
2018-May-20 04:00N 53°04' W 129°43'0 0.0 1014.0
2018-May-20 03:00N 53°04' W 129°43'0 0.0 1013.8
2018-May-20 02:00N 53°04' W 129°43'0 0.0 1014.1
2018-May-20 01:00N 53°04' W 129°43'0 0.0 1014.4
2018-May-20 00:00N 53°04' W 129°43'0 0.0 1014.7
2018-May-19 23:00N 53°04' W 129°43'0 0.4 1015.0
2018-May-19 22:00N 53°04' W 129°43'0 0.0 1015.3
2018-May-19 19:00N 53°04' W 129°43'0 0.0 1015.7
2018-May-19 18:00N 53°04' W 129°43'0 0.0 1016.1
2018-May-19 17:00N 53°04' W 129°43'0 0.0 1016.4
2018-May-19 16:00N 53°04' W 129°43'0 0.4 1016.3
2018-May-19 15:00N 53°04' W 129°43'0 0.0 1016.5
2018-May-19 14:00N 53°04' W 129°43'0 0.4 1016.2
2018-May-19 13:00N 53°04' W 129°43'0 0.4 1016.6
2018-May-19 12:00N 53°04' W 129°43'0 0.0 1017.0
2018-May-19 11:00N 53°04' W 129°43'0 0.0 1017.2
2018-May-19 10:00N 53°04' W 129°43'0 0.0 1017.3
2018-May-19 06:00N 53°04' W 129°43'0 0.0 1017.4
2018-May-19 05:00N 53°04' W 129°43'0 0.4 1017.3
2018-May-19 04:00N 53°04' W 129°43'0 0.4 1017.1
2018-May-19 03:00N 53°04' W 129°43'0 0.0 1017.2
2018-May-19 02:00N 53°04' W 129°43'0 0.0 1017.2
2018-May-19 01:00N 53°04' W 129°43'0 0.4 1017.3
2018-May-19 00:00N 53°04' W 129°43'0 0.0 1017.2
2018-May-18 23:00N 53°04' W 129°43'0 0.4 1017.6
2018-May-18 22:00N 53°04' W 129°43'0 0.0 1017.9
2018-May-18 17:00N 53°04' W 129°43'0 0.0 1017.7
2018-May-18 16:00N 53°04' W 129°43'0 0.0 1017.8
2018-May-18 15:00N 53°04' W 129°43'0 0.4 1017.5
2018-May-18 14:00N 53°04' W 129°43'0 0.4 1017.2
2018-May-18 13:00N 53°04' W 129°43'0 0.0 1017.2
2018-May-18 12:00N 53°04' W 129°43'0 0.0 1017.1
2018-May-18 11:00N 53°04' W 129°43'0 0.0 1017.1
2018-May-18 10:00N 53°04' W 129°43'0 0.1 1017.2
2018-May-18 06:00N 53°04' W 129°43'0 0.4 1017.4
2018-May-18 05:00N 53°04' W 129°43'1 1.4 1017.4
2018-May-18 04:00N 53°04' W 129°45'0 0.0 1017.2
2018-May-18 03:00N 53°04' W 129°45'1 1.4 1017.3
2018-May-18 02:00N 53°04' W 129°43'0 0.0 1017.5
2018-May-18 01:00N 53°04' W 129°43'0 0.0 1018.0
2018-May-18 00:00N 53°04' W 129°43'0 0.0 1018.3
2018-May-17 22:00N 53°04' W 129°43'0 0.0 1019.1
2018-May-17 19:00N 53°04' W 129°43'0 0.0 1018.9
2018-May-17 18:00N 53°04' W 129°43'0 0.0 1018.9
2018-May-17 17:00N 53°04' W 129°43'0 0.0 1018.8
2018-May-17 16:00N 53°04' W 129°43'0 0.0 1019.0
2018-May-17 15:00N 53°04' W 129°43'0 0.0 1019.1
2018-May-17 14:00N 53°04' W 129°43'0 0.4 1019.2
2018-May-17 13:00N 53°04' W 129°43'0 0.0 1019.1
2018-May-17 12:00N 53°04' W 129°43'0 0.0 1019.2
2018-May-17 11:00N 53°04' W 129°43'0 0.0 1019.4
2018-May-17 06:00N 53°04' W 129°43'0 0.0 1019.3
2018-May-17 05:00N 53°04' W 129°43'0 0.4 1019.2
2018-May-17 04:00N 53°04' W 129°43'0 0.0 1018.9
2018-May-17 03:00N 53°04' W 129°43'0 0.0 1018.9
2018-May-17 02:00N 53°04' W 129°43'0 0.0 1019.1
2018-May-17 01:00N 53°04' W 129°43'0 0.0 1019.2
2018-May-17 00:00N 53°04' W 129°43'0 0.0 1019.3
2018-May-16 23:00N 53°04' W 129°43'0 0.0 1019.3
2018-May-16 22:00N 53°04' W 129°43'0 0.0 1019.4
2018-May-16 19:00N 53°04' W 129°43'0 0.0 1018.7
2018-May-16 18:00N 53°04' W 129°43'0 0.4 1018.3
2018-May-16 17:00N 53°04' W 129°43'0 0.0 1018.0
2018-May-16 16:00N 53°04' W 129°43'0 0.4 1017.7
2018-May-16 15:00N 53°04' W 129°43'0 0.0 1017.5
2018-May-16 14:00N 53°04' W 129°43'0 0.0 1017.4
2018-May-16 13:00N 53°04' W 129°43'0 0.0 1016.9
2018-May-16 12:00N 53°04' W 129°43'0 0.0 1016.5
2018-May-16 11:00N 53°04' W 129°43'0 0.0 1016.2
2018-May-16 06:00N 53°04' W 129°43'0 0.0 1014.2
2018-May-16 05:00N 53°04' W 129°43'0 0.0 1013.8
2018-May-16 04:00N 53°04' W 129°43'0 0.4 1013.3
2018-May-16 03:00N 53°04' W 129°43'0 0.0 1013.3
2018-May-16 02:00N 53°04' W 129°43'0 0.0 1013.4
2018-May-16 01:00N 53°04' W 129°43'0 0.0 1013.4
2018-May-16 00:00N 53°04' W 129°43'0 0.4 1013.6
2018-May-15 23:00N 53°04' W 129°43'0 0.0 1013.8
2018-May-15 22:00N 53°04' W 129°43'0 0.0 1014.0
2018-May-15 19:00N 53°04' W 129°43'0 0.0 1014.1
2018-May-15 18:00N 53°04' W 129°43'0 0.0 1013.9
2018-May-15 17:00N 53°04' W 129°43'0 0.0 1013.9
2018-May-15 16:00N 53°04' W 129°43'0 0.0 1014.0
2018-May-15 15:00N 53°04' W 129°43'0 0.0 1013.9
2018-May-15 14:00N 53°04' W 129°43'0 0.0 1013.8
2018-May-15 13:00N 53°04' W 129°43'0 0.0 1013.6
2018-May-15 12:00N 53°04' W 129°43'0 0.0 1013.5
2018-May-15 11:00N 53°04' W 129°43'0 0.0 1013.6
2018-May-15 05:00N 53°04' W 129°43'0 0.0 1014.3
2018-May-15 04:00N 53°04' W 129°43'0 0.0 1014.2
2018-May-15 03:00N 53°04' W 129°43'0 0.0 1014.4
2018-May-15 02:00N 53°04' W 129°43'0 0.0 1014.8
2018-May-15 01:00N 53°04' W 129°43'0 0.0 1015.0
2018-May-15 00:00N 53°04' W 129°43'0 0.0 1015.4
2018-May-14 23:00N 53°04' W 129°43'0 0.0 1015.6
2018-May-14 22:00N 53°04' W 129°43'0 0.0 1015.7
2018-May-14 18:00N 53°04' W 129°43'0 0.0 1016.2
2018-May-14 17:00N 53°04' W 129°43'0 0.0 1016.2
2018-May-14 16:00N 53°04' W 129°43'0 0.0 1016.1
2018-May-14 15:00N 53°04' W 129°43'0 0.0 1016.1
2018-May-14 14:00N 53°04' W 129°43'0 0.0 1016.0
2018-May-14 13:00N 53°04' W 129°43'0 0.0 1015.9
2018-May-14 12:00N 53°04' W 129°43'0 0.0 1015.8
2018-May-14 11:00N 53°04' W 129°43'0 0.0 1015.7
2018-May-14 06:00N 53°04' W 129°43'0 0.0 1015.0
2018-May-14 05:00N 53°04' W 129°43'0 0.0 1014.5
2018-May-14 04:00N 53°04' W 129°43'0 0.0 1014.6
2018-May-14 03:00N 53°04' W 129°43'0 0.0 1014.8
2018-May-14 02:00N 53°04' W 129°43'0 0.0 1015.1
2018-May-14 01:00N 53°04' W 129°43'0 0.0 1015.6
2018-May-14 00:00N 53°04' W 129°43'0 0.0 1016.1
2018-May-13 23:00N 53°04' W 129°43'0 0.0 1016.5
2018-May-13 22:00N 53°04' W 129°43'0 0.0 1016.8
2018-May-13 21:00N 53°04' W 129°43'0 0.0 1017.1
2018-May-13 20:00N 53°04' W 129°43'0 0.0 1017.8
2018-May-13 18:00N 53°04' W 129°43'0 0.0 1018.3
2018-May-13 17:00N 53°04' W 129°43'0 0.0 1018.7
2018-May-13 16:00N 53°04' W 129°43'0 0.0 1019.1
2018-May-13 15:00N 53°04' W 129°43'0 0.0 1019.3
2018-May-13 14:00N 53°04' W 129°43'0 0.0 1019.3
2018-May-13 13:00N 53°04' W 129°43'0 0.0 1019.3
2018-May-13 12:00N 53°04' W 129°43'0 0.0 1019.8
2018-May-13 06:00N 53°04' W 129°43'0 0.0 1021.5
2018-May-13 05:00N 53°04' W 129°43'0 0.0 1021.5
2018-May-13 04:00N 53°04' W 129°43'0 0.0 1021.3
2018-May-13 03:00N 53°04' W 129°43'0 0.0 1021.6
2018-May-13 02:00N 53°04' W 129°43'0 0.0 1022.3
2018-May-13 01:00N 53°04' W 129°43'0 0.0 1023.0
2018-May-13 00:00N 53°04' W 129°43'0 0.0 1023.3
2018-May-12 23:00N 53°04' W 129°43'0 0.4 1024.2
2018-May-12 22:00N 53°04' W 129°43'0 0.0 1024.7
2018-May-12 21:00N 53°04' W 129°43'0 0.2 1025.0
2018-May-12 19:00N 53°04' W 129°43'0 0.0 1025.9
2018-May-12 18:00N 53°04' W 129°43'   1026.3

Dump ship's entire track history